Time;durP1;ratioP1;P1;durP2;ratioP2;P2;SDS_P1;SDS_P2;PMS_P1;PMS_P2;Temp;Humidity;BMP_temperature;BMP_pressure;BME280_temperature;BME280_humidity;BME280_pressure;Samples;Min_cycle;Max_cycle;Signal;HPM_P1;HPM_P2
2022/12/03 00:02:21;;;;;;;33.23;14.43;;;;;;;0.58;88.54;102110.41;5092608;28;20468;-69
2022/12/03 00:04:47;;;;;;;39.13;17.63;;;;;;;0.53;88.82;102110.13;5092770;28;20495;-69
2022/12/03 00:07:14;;;;;;;61.90;19.90;;;;;;;0.50;89.14;102108.69;5093316;28;20575;-69
2022/12/03 00:09:41;;;;;;;55.20;17.63;;;;;;;0.41;89.13;102104.56;5094191;28;20443;-69
2022/12/03 00:12:08;;;;;;;41.53;17.70;;;;;;;0.38;88.77;102099.59;5092406;28;20531;-69
2022/12/03 00:14:36;;;;;;;41.33;17.10;;;;;;;0.42;89.52;102106.19;5093671;28;20451;-69
2022/12/03 00:17:02;;;;;;;45.87;18.73;;;;;;;0.34;89.07;102101.00;5093190;28;20472;-68
2022/12/03 00:19:29;;;;;;;46.60;16.73;;;;;;;0.41;89.25;102097.38;5093929;28;20578;-69
2022/12/03 00:21:55;;;;;;;49.20;18.63;;;;;;;0.52;89.04;102100.50;5093748;28;20475;-69
2022/12/03 00:24:22;;;;;;;36.13;14.90;;;;;;;0.54;90.07;102099.28;5092160;28;20896;-69
2022/12/03 00:26:48;;;;;;;39.37;17.40;;;;;;;0.50;89.92;102109.53;5093880;28;20543;-69
2022/12/03 00:29:15;;;;;;;37.57;16.90;;;;;;;0.45;89.27;102095.16;5091052;28;20539;-69
2022/12/03 00:31:44;;;;;;;40.77;17.90;;;;;;;0.44;89.05;102101.47;5093548;28;21013;-69
2022/12/03 00:34:10;;;;;;;37.43;15.80;;;;;;;0.47;90.24;102103.75;5092296;28;20962;-68
2022/12/03 00:36:37;;;;;;;38.60;15.20;;;;;;;0.42;89.54;102101.69;5093722;28;20460;-70
2022/12/03 00:39:04;;;;;;;39.70;15.57;;;;;;;0.25;88.87;102095.81;5091192;28;20579;-70
2022/12/03 00:41:30;;;;;;;34.43;16.03;;;;;;;0.31;88.80;102098.72;5093664;28;20523;-72
2022/12/03 00:43:57;;;;;;;46.00;18.47;;;;;;;0.38;89.17;102099.59;5091597;28;20456;-70
2022/12/03 00:46:24;;;;;;;39.10;16.07;;;;;;;0.43;89.08;102091.84;5093179;28;20575;-69
2022/12/03 00:48:52;;;;;;;42.03;18.07;;;;;;;0.39;88.78;102095.91;5092518;28;20539;-69
2022/12/03 00:51:19;;;;;;;45.60;17.30;;;;;;;0.38;88.25;102094.28;5093552;28;20476;-69
2022/12/03 00:53:45;;;;;;;41.87;17.53;;;;;;;0.36;88.54;102091.00;5091735;28;20491;-69
2022/12/03 00:56:12;;;;;;;35.47;14.83;;;;;;;0.35;89.35;102092.00;5093427;28;20447;-69
2022/12/03 00:58:38;;;;;;;33.67;14.37;;;;;;;0.32;88.89;102095.88;5091266;28;20587;-69
2022/12/03 01:01:05;;;;;;;36.97;16.43;;;;;;;0.36;89.44;102101.66;5092742;28;20946;-69
2022/12/03 01:03:32;;;;;;;33.47;14.60;;;;;;;0.32;88.11;102092.41;5082280;28;20548;-69
2022/12/03 01:06:00;;;;;;;36.23;16.70;;;;;;;0.34;88.18;102096.50;5073171;28;20465;-69
2022/12/03 01:08:26;;;;;;;44.67;16.90;;;;;;;0.38;88.11;102099.59;5084149;28;20992;-68
2022/12/03 01:10:53;;;;;;;42.60;16.43;;;;;;;0.48;88.41;102102.72;5093302;28;20440;-69
2022/12/03 01:13:19;;;;;;;49.90;18.60;;;;;;;0.45;87.63;102098.63;5089989;28;20543;-69
2022/12/03 01:15:46;;;;;;;32.77;15.27;;;;;;;0.31;88.39;102101.38;5093200;28;20449;-69
2022/12/03 01:18:12;;;;;;;41.07;16.03;;;;;;;0.38;88.48;102095.09;5092172;28;20663;-69
2022/12/03 01:20:39;;;;;;;47.50;16.80;;;;;;;0.35;88.29;102097.31;5093237;28;20527;-69
2022/12/03 01:23:07;;;;;;;42.40;18.43;;;;;;;0.35;88.43;102100.81;5088305;28;20551;-69
2022/12/03 01:25:34;;;;;;;42.87;18.27;;;;;;;0.33;88.39;102102.84;5093312;28;20438;-69
2022/12/03 01:28:00;;;;;;;43.70;17.57;;;;;;;0.29;87.51;102096.28;5092015;28;20555;-69
2022/12/03 01:30:27;;;;;;;39.30;17.27;;;;;;;0.33;87.86;102094.03;5093163;28;20444;-69
2022/12/03 01:32:52;;;;;;;38.73;17.30;;;;;;;0.37;88.39;102097.97;5092349;28;20460;-69
2022/12/03 01:35:19;;;;;;;39.10;16.50;;;;;;;0.33;89.32;102096.69;5091010;28;20590;-68
2022/12/03 01:37:45;;;;;;;42.77;16.90;;;;;;;0.39;89.61;102093.25;5090981;28;20279;-69
2022/12/03 01:40:18;;;;;;;38.20;16.10;;;;;;;0.45;89.05;102095.16;5095054;28;20467;-68
2022/12/03 01:42:45;;;;;;;41.97;18.67;;;;;;;0.46;88.17;102088.78;5095761;28;20480;-69
2022/12/03 01:45:22;;;;;;;40.93;16.30;;;;;;;0.49;88.42;102093.75;5094795;28;20853;-69
2022/12/03 01:47:49;;;;;;;33.13;15.80;;;;;;;0.46;88.60;102091.47;5096076;28;20483;-68
2022/12/03 01:50:20;;;;;;;45.30;17.20;;;;;;;0.46;87.78;102094.94;5096910;28;20479;-68
2022/12/03 01:52:47;;;;;;;53.13;21.73;;;;;;;0.42;87.53;102087.53;5096102;28;20463;-68
2022/12/03 01:55:18;;;;;;;53.27;19.00;;;;;;;0.35;88.58;102084.81;5094625;28;20479;-68
2022/12/03 01:57:47;;;;;;;39.63;18.37;;;;;;;0.40;87.73;102098.41;5076128;28;20839;-69
2022/12/03 02:00:16;;;;;;;43.47;18.10;;;;;;;0.38;87.62;102084.44;5080090;28;20458;-68
2022/12/03 02:02:43;;;;;;;44.33;19.47;;;;;;;0.32;87.56;102092.41;5096719;28;20428;-68
2022/12/03 02:05:16;;;;;;;37.73;16.37;;;;;;;0.29;87.43;102088.28;5094479;28;20484;-68
2022/12/03 02:07:43;;;;;;;45.10;18.57;;;;;;;0.34;88.40;102090.34;5082885;28;20467;-69
2022/12/03 02:10:13;;;;;;;46.17;17.57;;;;;;;0.44;88.04;102091.66;5095480;28;20452;-68
2022/12/03 02:12:43;;;;;;;33.90;15.77;;;;;;;0.52;87.67;102093.31;5096392;28;20440;-69
2022/12/03 02:15:11;;;;;;;41.60;16.67;;;;;;;0.50;87.42;102085.53;5095226;28;20480;-69
2022/12/03 02:17:38;;;;;;;38.33;19.27;;;;;;;0.42;87.09;102084.88;5096501;28;20459;-69
2022/12/03 02:20:08;;;;;;;56.83;18.10;;;;;;;0.50;87.35;102084.72;5094695;28;20494;-69
2022/12/03 02:22:44;;;;;;;44.30;19.70;;;;;;;0.51;87.29;102081.03;5095883;28;22202;-69
2022/12/03 02:25:14;;;;;;;36.50;17.43;;;;;;;0.45;86.49;102095.16;5094154;28;20533;-69
2022/12/03 02:27:42;;;;;;;42.87;17.10;;;;;;;0.41;87.91;102094.72;5075973;28;20497;-69
2022/12/03 02:30:10;;;;;;;52.67;18.10;;;;;;;0.47;87.18;102093.91;5094532;28;20463;-69
2022/12/03 02:32:37;;;;;;;37.27;17.50;;;;;;;0.57;87.62;102087.41;5095852;28;20954;-69
2022/12/03 02:35:04;;;;;;;43.20;18.90;;;;;;;0.58;87.56;102083.72;5093228;28;20538;-69
2022/12/03 02:37:33;;;;;;;39.03;17.57;;;;;;;0.56;87.34;102091.09;5094197;28;20480;-68
2022/12/03 02:40:03;;;;;;;39.70;17.73;;;;;;;0.43;86.45;102086.50;5095319;28;20571;-69
2022/12/03 02:42:34;;;;;;;46.90;17.47;;;;;;;0.40;87.21;102086.88;5094706;28;20539;-69
2022/12/03 02:45:05;;;;;;;37.57;15.20;;;;;;;0.46;87.68;102088.78;5095465;28;20448;-69
2022/12/03 02:47:33;;;;;;;42.30;17.10;;;;;;;0.47;86.83;102083.25;5094018;28;20480;-69
2022/12/03 02:50:01;;;;;;;42.93;17.17;;;;;;;0.50;86.59;102085.53;5095738;28;20475;-69
2022/12/03 02:52:28;;;;;;;36.37;15.83;;;;;;;0.49;86.48;102085.75;5093924;28;20467;-69
2022/12/03 02:54:54;;;;;;;32.37;15.60;;;;;;;0.49;86.35;102089.22;5094748;28;20544;-69
2022/12/03 02:57:21;;;;;;;41.87;17.43;;;;;;;0.46;86.61;102080.78;5093344;28;20857;-69
2022/12/03 02:59:49;;;;;;;44.30;18.60;;;;;;;0.42;87.10;102079.53;5094437;28;20997;-69
2022/12/03 03:02:16;;;;;;;41.70;16.17;;;;;;;0.43;85.93;102078.50;5095486;28;20436;-69
2022/12/03 03:04:43;;;;;;;50.40;16.97;;;;;;;0.42;86.43;102079.53;5094568;28;20461;-68
2022/12/03 03:07:10;;;;;;;40.50;18.67;;;;;;;0.34;86.66;102082.34;5093327;28;21001;-69
2022/12/03 03:09:37;;;;;;;52.30;19.47;;;;;;;0.35;87.19;102084.81;5095383;28;20454;-69
2022/12/03 03:12:04;;;;;;;38.83;17.30;;;;;;;0.43;87.09;102081.19;5094210;28;21013;-68
2022/12/03 03:14:32;;;;;;;40.57;16.20;;;;;;;0.50;86.55;102087.38;5094731;28;20479;-71
2022/12/03 03:17:00;;;;;;;51.23;16.07;;;;;;;0.42;86.42;102075.03;5094363;28;20593;-70
2022/12/03 03:19:26;;;;;;;44.00;16.10;;;;;;;0.41;87.40;102081.38;5093442;28;20480;-69
2022/12/03 03:21:53;;;;;;;37.67;15.60;;;;;;;0.42;86.58;102079.53;5095191;28;20536;-69
2022/12/03 03:24:21;;;;;;;43.50;16.83;;;;;;;0.37;85.86;102073.97;5094138;28;20464;-68
2022/12/03 03:26:48;;;;;;;37.47;17.17;;;;;;;0.33;86.71;102072.72;5094695;28;20522;-68
2022/12/03 03:29:15;;;;;;;46.83;17.60;;;;;;;0.29;87.18;102071.47;5093946;28;20483;-68
2022/12/03 03:31:43;;;;;;;37.97;15.90;;;;;;;0.27;86.79;102074.34;5094397;28;20480;-68
2022/12/03 03:34:12;;;;;;;39.20;16.43;;;;;;;0.32;86.96;102068.41;5093836;28;20536;-68
2022/12/03 03:36:40;;;;;;;37.17;16.73;;;;;;;0.40;87.62;102065.56;5094783;28;20468;-68
2022/12/03 03:39:07;;;;;;;39.23;17.43;;;;;;;0.35;88.55;102062.69;5093797;28;20579;-68
2022/12/03 03:41:34;;;;;;;60.10;17.83;;;;;;;0.38;88.23;102056.97;5094454;28;20531;-72
2022/12/03 03:44:03;;;;;;;40.17;16.13;;;;;;;0.41;87.38;102049.41;5091906;28;20538;-68
2022/12/03 03:46:32;;;;;;;46.10;18.07;;;;;;;0.32;87.93;102057.75;5094325;28;20468;-69
2022/12/03 03:48:58;;;;;;;37.80;15.37;;;;;;;0.34;87.69;102059.19;5093272;28;20456;-70
2022/12/03 03:51:26;;;;;;;45.30;18.57;;;;;;;0.32;88.04;102052.44;5093525;28;20495;-70
2022/12/03 03:53:53;;;;;;;37.20;16.77;;;;;;;0.30;88.84;102049.13;5094631;28;20445;-70
2022/12/03 03:56:21;;;;;;;54.57;17.47;;;;;;;0.40;88.27;102049.56;5093286;28;20484;-70
2022/12/03 03:58:47;;;;;;;44.00;18.73;;;;;;;0.39;87.82;102047.94;5092293;28;20567;-70
2022/12/03 04:01:14;;;;;;;39.33;17.20;;;;;;;0.38;87.32;102043.63;5094310;28;20458;-70
2022/12/03 04:03:41;;;;;;;39.17;18.77;;;;;;;0.39;87.22;102050.59;5093396;28;20452;-70
2022/12/03 04:06:08;;;;;;;43.97;18.27;;;;;;;0.28;88.10;102045.84;5093932;28;20451;-70
2022/12/03 04:08:36;;;;;;;32.87;15.33;;;;;;;0.37;88.53;102028.66;5092230;28;20496;-69
2022/12/03 04:13:47;;;;;;;40.10;16.33;;;;;;;0.35;87.58;102036.03;5093209;28;20497;-69
2022/12/03 04:16:14;;;;;;;43.73;17.60;;;;;;;0.32;88.00;102039.09;5094050;28;20851;-70
2022/12/03 04:18:43;;;;;;;45.40;17.93;;;;;;;0.38;87.96;102038.31;5091698;28;20543;-70
2022/12/03 04:23:55;;;;;;;40.73;15.90;;;;;;;0.34;87.23;102029.06;5093049;28;20455;-70
2022/12/03 04:29:06;;;;;;;45.37;16.77;;;;;;;0.41;87.79;102032.59;5091997;28;20450;-69
2022/12/03 04:37:12;;;;;;;42.00;15.60;;;;;;;0.38;87.42;102027.66;5089086;28;20468;-70
2022/12/03 04:39:40;;;;;;;50.30;18.70;;;;;;;0.34;87.70;102024.53;5073021;28;20576;-71
2022/12/03 04:42:07;;;;;;;36.97;16.37;;;;;;;0.32;87.90;102021.28;5092980;28;20458;-69
2022/12/03 04:44:35;;;;;;;40.90;17.43;;;;;;;0.30;87.92;102025.13;5093554;28;20452;-69
2022/12/03 04:47:04;;;;;;;41.00;17.10;;;;;;;0.31;87.79;102019.63;5093007;28;20463;-70
2022/12/03 04:49:32;;;;;;;47.37;19.97;;;;;;;0.29;87.35;102020.84;5092201;28;20459;-70
2022/12/03 04:51:58;;;;;;;48.97;19.80;;;;;;;0.24;86.82;102024.91;5092562;28;20456;-70
2022/12/03 04:54:25;;;;;;;43.10;18.27;;;;;;;0.28;87.77;102033.34;5093300;28;20930;-70
2022/12/03 04:56:53;;;;;;;48.30;19.47;;;;;;;0.38;88.47;102024.97;5092540;28;20500;-70
2022/12/03 04:59:20;;;;;;;49.63;19.00;;;;;;;0.38;87.67;102028.47;5092922;28;20900;-70
2022/12/03 05:01:47;;;;;;;51.77;18.57;;;;;;;0.34;89.12;102024.53;5092429;28;20538;-70
2022/12/03 05:04:15;;;;;;;43.10;19.07;;;;;;;0.37;88.60;102020.69;5093379;28;20429;-70
2022/12/03 05:06:42;;;;;;;44.17;16.83;;;;;;;0.38;88.84;102020.47;5092492;28;20490;-70
2022/12/03 05:09:08;;;;;;;41.33;18.80;;;;;;;0.33;87.70;102016.75;5092975;28;20473;-70
2022/12/03 05:11:35;;;;;;;42.63;17.73;;;;;;;0.30;87.36;102012.63;5091899;28;20983;-70
2022/12/03 05:14:03;;;;;;;48.50;18.93;;;;;;;0.30;87.44;102006.50;5092719;28;20447;-70
2022/12/03 05:16:30;;;;;;;58.40;20.83;;;;;;;0.34;87.44;102019.22;5092048;28;20563;-70
2022/12/03 05:18:57;;;;;;;45.37;18.43;;;;;;;0.41;86.85;102017.41;5092830;28;20882;-70
2022/12/03 05:21:22;;;;;;;39.20;17.30;;;;;;;0.41;86.89;102014.75;5091269;28;20474;-70
2022/12/03 05:23:49;;;;;;;44.30;17.13;;;;;;;0.45;87.42;102017.84;5093213;28;21001;-70
2022/12/03 05:26:16;;;;;;;42.23;17.27;;;;;;;0.49;86.55;102011.09;5090356;28;20344;-70
2022/12/03 05:28:43;;;;;;;44.93;18.70;;;;;;;0.42;86.49;102010.25;5084241;28;20524;-70
2022/12/03 05:31:11;;;;;;;34.70;16.50;;;;;;;0.42;87.09;102007.56;5074296;28;20484;-70
2022/12/03 05:33:37;;;;;;;39.80;17.70;;;;;;;0.46;86.35;102011.50;5092956;28;20483;-70
2022/12/03 05:36:04;;;;;;;54.33;19.07;;;;;;;0.43;87.10;102006.56;5091164;28;20468;-71
2022/12/03 05:38:31;;;;;;;46.83;17.33;;;;;;;0.44;87.11;102008.19;5090064;28;20568;-70
2022/12/03 05:40:58;;;;;;;56.90;21.50;;;;;;;0.47;87.20;102007.81;5090858;28;20542;-71
2022/12/03 05:43:24;;;;;;;48.80;18.33;;;;;;;0.55;88.31;102010.31;5092929;28;20523;-70
2022/12/03 05:45:50;;;;;;;52.37;18.20;;;;;;;0.56;87.65;102017.28;5091716;28;20462;-70
2022/12/03 05:48:18;;;;;;;55.07;18.37;;;;;;;0.58;86.96;102004.59;5092118;28;20852;-71
2022/12/03 05:50:46;;;;;;;40.10;16.93;;;;;;;0.58;87.40;102003.75;5091339;28;20446;-69
2022/12/03 05:53:13;;;;;;;44.43;18.60;;;;;;;0.52;88.05;102000.03;5088522;28;20903;-69
2022/12/03 05:55:40;;;;;;;52.40;18.60;;;;;;;0.43;89.48;102006.56;5091676;28;20433;-70
2022/12/03 05:58:06;;;;;;;46.83;20.17;;;;;;;0.43;89.26;101995.88;5092756;28;20496;-70
2022/12/03 06:00:36;;;;;;;38.83;16.57;;;;;;;0.40;90.63;101991.78;5091378;28;20580;-69
2022/12/03 06:03:04;;;;;;;44.13;17.83;;;;;;;0.45;89.86;101994.69;5090629;28;20953;-70
2022/12/03 06:05:32;;;;;;;36.47;17.77;;;;;;;0.45;89.73;101989.34;5090953;28;20543;-69
2022/12/03 06:07:58;;;;;;;35.67;16.67;;;;;;;0.46;90.88;101998.16;5092684;28;20463;-69
2022/12/03 06:10:26;;;;;;;44.13;18.00;;;;;;;0.48;91.84;101996.09;5091509;28;20463;-69
2022/12/03 06:12:53;;;;;;;45.60;19.47;;;;;;;0.47;91.96;101989.16;5090547;28;20464;-70
2022/12/03 06:15:20;;;;;;;42.27;18.87;;;;;;;0.41;92.55;101993.44;5092619;28;20454;-69
2022/12/03 06:17:47;;;;;;;49.30;19.70;;;;;;;0.34;92.99;102005.91;5091208;28;21016;-70
2022/12/03 06:20:16;;;;;;;38.87;15.97;;;;;;;0.35;93.29;101991.53;5091662;28;20861;-69
2022/12/03 06:22:44;;;;;;;51.33;19.13;;;;;;;0.30;93.96;101996.66;5091333;28;20541;-71
2022/12/03 06:25:12;;;;;;;37.43;15.03;;;;;;;0.29;93.79;101996.84;5092392;28;20447;-70
2022/12/03 06:27:38;;;;;;;48.07;19.13;;;;;;;0.28;94.54;102005.88;5093246;28;20567;-70
2022/12/03 06:30:07;;;;;;;42.90;18.30;;;;;;;0.31;94.33;102002.78;5095903;28;20914;-69
2022/12/03 06:32:34;;;;;;;42.60;18.40;;;;;;;0.30;94.67;102001.97;5094833;28;20462;-70
2022/12/03 06:35:00;;;;;;;57.77;19.03;;;;;;;0.27;95.44;101996.22;5096189;28;20472;-69
2022/12/03 06:37:27;;;;;;;58.90;20.40;;;;;;;0.19;95.34;101995.38;5093154;28;20511;-69
2022/12/03 06:39:55;;;;;;;44.07;19.40;;;;;;;0.15;95.89;101993.31;5095505;28;20859;-69
2022/12/03 06:42:22;;;;;;;40.63;16.17;;;;;;;0.20;95.99;101996.19;5095080;28;20539;-69
2022/12/03 06:44:48;;;;;;;56.20;19.53;;;;;;;0.16;95.54;102000.28;5095610;28;20949;-70
2022/12/03 06:47:15;;;;;;;50.90;18.73;;;;;;;0.19;95.36;101995.38;5094238;28;20511;-70
2022/12/03 06:49:41;;;;;;;38.83;17.73;;;;;;;0.15;95.51;101998.63;5095475;28;20822;-69
2022/12/03 06:52:08;;;;;;;44.27;19.20;;;;;;;0.19;96.77;101997.22;5094479;28;20457;-70
2022/12/03 06:54:34;;;;;;;44.90;17.50;;;;;;;0.18;96.62;102001.72;5095465;28;20942;-69
2022/12/03 06:57:02;;;;;;;50.90;18.10;;;;;;;0.21;96.53;102000.50;5094738;28;20508;-70
2022/12/03 06:59:32;;;;;;;46.00;17.07;;;;;;;0.22;96.27;102007.47;5087038;28;21106;-70
2022/12/03 07:01:59;;;;;;;46.23;19.17;;;;;;;0.20;96.10;101994.34;5094822;28;20488;-71
2022/12/03 07:04:26;;;;;;;45.20;18.80;;;;;;;0.12;95.86;101997.19;5094611;28;20833;-71
2022/12/03 07:06:52;;;;;;;43.27;18.10;;;;;;;0.14;96.04;101987.16;5090109;28;20490;-69
2022/12/03 07:09:19;;;;;;;47.83;20.20;;;;;;;0.09;96.41;101986.94;5095607;28;20816;-69
2022/12/03 07:11:45;;;;;;;51.10;18.77;;;;;;;0.12;96.32;101993.69;5091300;28;20452;-69
2022/12/03 07:14:13;;;;;;;47.33;18.53;;;;;;;0.08;96.65;101987.94;5095213;28;20466;-72
2022/12/03 07:16:41;;;;;;;46.80;18.83;;;;;;;0.18;96.08;101991.06;5093929;28;20477;-68
2022/12/03 07:19:09;;;;;;;45.67;18.40;;;;;;;0.17;96.30;101991.25;5094817;28;20445;-70
2022/12/03 07:21:36;;;;;;;47.07;17.90;;;;;;;0.20;96.66;101998.88;5093355;28;20502;-70
2022/12/03 07:24:02;;;;;;;46.00;19.23;;;;;;;0.23;95.56;101998.47;5095011;28;20532;-70
2022/12/03 07:26:29;;;;;;;41.70;18.10;;;;;;;0.24;95.17;101995.59;5090858;28;20581;-70
2022/12/03 07:28:55;;;;;;;52.43;18.70;;;;;;;0.17;96.41;101992.06;5092821;28;20456;-70
2022/12/03 07:31:23;;;;;;;38.43;17.77;;;;;;;0.16;96.32;101995.75;5094085;28;20463;-70
2022/12/03 07:33:50;;;;;;;53.57;19.00;;;;;;;0.22;96.07;101994.16;5092777;28;20463;-70
2022/12/03 07:36:16;;;;;;;48.70;18.33;;;;;;;0.22;95.87;101995.00;5094441;28;20981;-70
2022/12/03 07:38:43;;;;;;;41.17;17.93;;;;;;;0.15;96.60;101983.47;5092201;28;20559;-70
2022/12/03 07:41:10;;;;;;;49.87;18.60;;;;;;;0.22;96.52;101989.66;5094397;28;20484;-70
2022/12/03 07:43:36;;;;;;;47.47;18.67;;;;;;;0.22;96.26;101991.47;5092544;28;20552;-70
2022/12/03 07:46:03;;;;;;;43.67;18.20;;;;;;;0.22;97.18;101989.66;5094418;28;20983;-70
2022/12/03 07:48:31;;;;;;;48.80;18.60;;;;;;;0.28;96.73;101987.22;5093630;28;20563;-70
2022/12/03 07:50:57;;;;;;;50.70;20.73;;;;;;;0.25;96.23;101991.09;5093069;28;20879;-69
2022/12/03 07:53:24;;;;;;;50.27;20.30;;;;;;;0.23;96.60;101993.97;5093655;28;20545;-70
2022/12/03 07:55:51;;;;;;;50.27;20.30;;;;;;;0.28;96.36;101990.72;5092809;28;21004;-70
2022/12/03 07:58:17;;;;;;;41.63;17.17;;;;;;;0.23;95.59;101995.81;5091389;28;20472;-71
2022/12/03 08:00:44;;;;;;;50.60;20.77;;;;;;;0.20;95.87;101989.03;5092235;28;20480;-70
2022/12/03 08:03:10;;;;;;;49.83;19.67;;;;;;;0.20;95.97;101991.69;5093327;28;20461;-70
2022/12/03 08:05:38;;;;;;;38.87;18.27;;;;;;;0.20;95.98;101997.00;5093039;28;20544;-70
2022/12/03 08:08:05;;;;;;;55.87;18.97;;;;;;;0.14;96.07;101992.50;5090484;28;20514;-70
2022/12/03 08:10:32;;;;;;;50.77;19.60;;;;;;;0.19;96.37;101979.41;5093753;28;20466;-70
2022/12/03 08:12:59;;;;;;;58.40;18.73;;;;;;;0.17;96.99;101989.41;5089976;28;20928;-70
2022/12/03 08:15:28;;;;;;;36.20;16.43;;;;;;;0.13;97.00;101985.50;5093870;28;20952;-70
2022/12/03 08:17:57;;;;;;;45.37;18.20;;;;;;;0.13;96.30;101982.81;5092602;28;20492;-70
2022/12/03 08:20:25;;;;;;;46.33;18.23;;;;;;;0.22;96.25;101984.34;5094204;28;20477;-70
2022/12/03 08:22:54;;;;;;;42.67;17.97;;;;;;;0.20;95.90;101978.38;5093065;28;20495;-69
2022/12/03 08:25:24;;;;;;;41.57;17.37;;;;;;;0.22;95.51;101981.66;5092564;28;20472;-71
2022/12/03 08:27:53;;;;;;;45.13;19.43;;;;;;;0.31;95.63;101986.81;5093014;28;20460;-71
2022/12/03 08:30:20;;;;;;;42.10;17.30;;;;;;;0.31;95.31;101973.47;5092165;28;20447;-70
2022/12/03 08:32:48;;;;;;;41.50;18.40;;;;;;;0.29;95.88;101975.53;5092350;28;20519;-70
2022/12/03 08:35:21;;;;;;;43.03;17.00;;;;;;;0.30;96.08;101974.50;5092644;28;20452;-70
2022/12/03 08:37:53;;;;;;;43.33;17.63;;;;;;;0.33;95.92;101966.13;5090888;28;20899;-71
2022/12/03 08:40:23;;;;;;;56.83;18.67;;;;;;;0.32;96.67;101977.81;5090433;28;20468;-72
2022/12/03 08:42:50;;;;;;;47.17;19.10;;;;;;;0.43;96.48;101974.56;5092898;28;20926;-71
2022/12/03 08:45:41;;;;;;;51.00;18.10;;;;;;;0.51;95.79;101971.72;5093126;28;20957;-71
2022/12/03 08:48:26;;;;;;;45.50;18.77;;;;;;;0.47;96.31;101968.63;5089502;28;20472;-68
2022/12/03 08:50:54;;;;;;;48.93;16.87;;;;;;;0.37;96.12;101970.03;5088441;28;20448;-69
2022/12/03 08:53:29;;;;;;;43.73;16.57;;;;;;;0.38;96.56;101977.84;5092709;28;20464;-70
2022/12/03 08:55:58;;;;;;;43.60;15.80;;;;;;;0.34;96.27;101975.75;5093020;28;20428;-70
2022/12/03 08:58:30;;;;;;;46.97;15.37;;;;;;;0.31;97.36;101984.16;5093404;28;20878;-70
2022/12/03 09:01:00;;;;;;;38.83;16.97;;;;;;;0.24;97.37;101976.94;5093112;28;20957;-70
2022/12/03 09:03:30;;;;;;;44.40;15.97;;;;;;;0.20;98.08;101975.69;5093157;28;20539;-70
2022/12/03 09:05:57;;;;;;;46.80;19.60;;;;;;;0.16;98.69;101973.63;5093021;28;20436;-70
2022/12/03 09:08:38;;;;;;;46.03;17.77;;;;;;;0.06;98.89;101978.50;5069738;28;20444;-70
2022/12/03 09:11:06;;;;;;;52.40;20.83;;;;;;;0.12;100.00;101973.19;5093186;28;20436;-70
2022/12/03 09:13:33;;;;;;;56.17;17.40;;;;;;;0.19;99.71;101976.72;5093242;28;20440;-70
2022/12/03 09:16:00;;;;;;;51.43;19.50;;;;;;;0.27;99.13;101974.91;5092843;28;20480;-71
2022/12/03 09:18:26;;;;;;;43.00;17.27;;;;;;;0.28;99.52;101969.41;5093204;28;20540;-70
2022/12/03 09:20:53;;;;;;;47.13;19.30;;;;;;;0.35;99.28;101967.56;5093773;28;20571;-70
2022/12/03 09:23:20;;;;;;;55.83;20.70;;;;;;;0.40;99.23;101964.28;5092937;28;20483;-69
2022/12/03 09:25:46;;;;;;;43.33;18.07;;;;;;;0.38;98.48;101967.16;5092831;28;20472;-70
2022/12/03 09:28:14;;;;;;;40.17;19.70;;;;;;;0.40;98.74;101969.63;5092086;28;20471;-70
2022/12/03 09:30:41;;;;;;;53.43;21.17;;;;;;;0.33;99.38;101969.63;5092512;28;20498;-69
2022/12/03 09:33:08;;;;;;;43.80;18.93;;;;;;;0.36;98.97;101955.09;5091942;28;20445;-71
2022/12/03 09:35:35;;;;;;;61.57;21.53;;;;;;;0.36;98.25;101963.91;5092414;28;20452;-71
2022/12/03 09:38:01;;;;;;;48.47;20.50;;;;;;;0.50;98.08;101956.78;5090117;28;20463;-70
2022/12/03 09:40:29;;;;;;;47.97;18.57;;;;;;;0.51;98.00;101961.06;5086170;28;20563;-70
2022/12/03 09:42:57;;;;;;;53.60;18.40;;;;;;;0.56;97.49;101960.47;5092276;28;20472;-70
2022/12/03 09:45:25;;;;;;;53.33;18.20;;;;;;;0.62;96.97;101957.00;5088937;28;20468;-73
2022/12/03 09:47:52;;;;;;;42.40;19.07;;;;;;;0.65;96.77;101957.41;5090528;28;20476;-70
2022/12/03 09:50:21;;;;;;;45.57;20.53;;;;;;;0.66;96.69;101959.06;5092355;28;20479;-70
2022/12/03 09:52:49;;;;;;;44.97;19.80;;;;;;;0.67;95.78;101944.72;5091886;28;20509;-70
2022/12/03 09:55:18;;;;;;;54.10;20.83;;;;;;;0.61;96.80;101950.84;5091955;28;20440;-71
2022/12/03 09:57:45;;;;;;;46.97;18.43;;;;;;;0.68;96.59;101945.53;5091427;28;20472;-71
2022/12/03 10:00:17;;;;;;;51.93;18.90;;;;;;;0.76;96.71;101942.69;5089422;28;20440;-71
2022/12/03 10:02:46;;;;;;;43.97;18.47;;;;;;;0.85;96.09;101938.81;5077125;28;20430;-70
2022/12/03 10:05:13;;;;;;;44.63;20.30;;;;;;;0.87;96.95;101939.41;5075700;28;20540;-72
2022/12/03 10:07:40;;;;;;;51.63;22.40;;;;;;;0.91;96.43;101929.16;5096397;28;20486;-71
2022/12/03 10:10:14;;;;;;;53.30;20.50;;;;;;;0.85;95.98;101927.31;5093273;28;20486;-70
2022/12/03 10:12:40;;;;;;;42.87;17.77;;;;;;;0.83;96.58;101921.34;5095238;28;20450;-71
2022/12/03 10:15:11;;;;;;;42.57;18.57;;;;;;;0.85;96.04;101927.31;5085522;28;20434;-70
2022/12/03 10:17:38;;;;;;;43.27;17.00;;;;;;;0.83;96.89;101921.34;5090652;28;20555;-70
2022/12/03 10:20:10;;;;;;;66.90;21.47;;;;;;;0.79;96.53;101923.59;5083096;28;20441;-71
2022/12/03 10:22:37;;;;;;;39.93;16.47;;;;;;;0.82;95.84;101917.06;5095605;28;20444;-70
2022/12/03 10:25:07;;;;;;;54.80;20.37;;;;;;;0.73;95.73;101922.56;5088956;28;20480;-71
2022/12/03 10:27:34;;;;;;;66.07;20.40;;;;;;;0.64;95.48;101921.13;5094559;28;20472;-71
2022/12/03 10:30:04;;;;;;;42.20;16.97;;;;;;;0.73;95.30;101914.56;5096108;28;20795;-71
2022/12/03 10:32:41;;;;;;;52.23;18.73;;;;;;;0.79;94.97;101920.94;5095283;28;20551;-70
2022/12/03 10:35:11;;;;;;;43.20;19.83;;;;;;;0.74;96.16;101907.38;5095251;28;20456;-70
2022/12/03 10:37:57;;;;;;;40.90;18.20;;;;;;;0.80;94.91;101914.59;5094174;28;20929;-71
2022/12/03 10:40:27;;;;;;;39.50;16.50;;;;;;;0.80;94.91;101909.25;5088255;28;20463;-70
2022/12/03 10:43:12;;;;;;;55.87;17.20;;;;;;;0.83;95.14;101918.69;5096027;28;20483;-70
2022/12/03 10:45:39;;;;;;;40.83;15.93;;;;;;;0.82;95.15;101903.72;5091149;28;20501;-70
2022/12/03 10:48:11;;;;;;;41.17;17.77;;;;;;;0.68;95.38;101908.22;5094378;28;20480;-69
2022/12/03 10:50:48;;;;;;;38.73;16.77;;;;;;;0.55;95.05;101902.84;5093604;28;20495;-70
2022/12/03 10:53:15;;;;;;;42.10;17.90;;;;;;;0.60;95.30;101901.22;5093460;28;20454;-71
2022/12/03 10:55:44;;;;;;;40.80;16.53;;;;;;;0.61;95.83;101910.03;5087380;28;20528;-70
2022/12/03 10:58:20;;;;;;;38.53;15.90;;;;;;;0.58;97.27;101897.94;5089936;28;21058;-70
2022/12/03 11:00:47;;;;;;;41.97;16.40;;;;;;;0.64;97.24;101905.13;5094333;28;20977;-70
2022/12/03 11:03:19;;;;;;;47.00;17.37;;;;;;;0.69;96.81;101900.00;5091258;28;20485;-71
2022/12/03 11:05:47;;;;;;;47.47;19.37;;;;;;;0.55;95.95;101906.34;5094916;28;20535;-70
2022/12/03 11:08:22;;;;;;;46.97;16.43;;;;;;;0.65;96.41;101903.28;5093576;28;20585;-71
2022/12/03 11:10:59;;;;;;;47.73;17.67;;;;;;;0.67;96.95;101901.25;5094997;28;20503;-70
2022/12/03 11:13:45;;;;;;;43.53;18.43;;;;;;;0.74;96.67;101896.72;5092988;28;20975;-71
2022/12/03 11:16:12;;;;;;;53.87;18.27;;;;;;;0.74;97.05;101900.22;5088614;28;20459;-71
2022/12/03 11:18:58;;;;;;;39.37;16.80;;;;;;;0.78;96.24;101897.16;5084158;28;20472;-70
2022/12/03 11:21:26;;;;;;;43.50;16.87;;;;;;;0.68;96.44;101890.38;5093787;28;20491;-71
2022/12/03 11:24:22;;;;;;;57.53;18.53;;;;;;;0.65;95.99;101893.44;5094871;28;20436;-70
2022/12/03 11:27:24;;;;;;;33.23;14.73;;;;;;;0.65;95.68;101887.28;5089892;28;20496;-72
2022/12/03 11:29:59;;;;;;;49.63;17.40;;;;;;;0.61;95.75;101876.19;5084270;28;20500;-72
2022/12/03 11:33:06;;;;;;;43.77;18.30;;;;;;;0.65;95.14;101876.63;5094548;28;20468;-71
2022/12/03 11:36:08;;;;;;;45.90;17.50;;;;;;;0.65;94.98;101874.75;5087013;28;20458;-70
2022/12/03 11:38:44;;;;;;;41.77;16.97;;;;;;;0.66;95.36;101871.06;5088763;28;20449;-70